sensor_id;sensor_type;location;lat;lon;timestamp;temperature;humidity
60727;DHT22;46577;49.004;12.120;2023-02-01T00:02:24;4.00;99.90
60727;DHT22;46577;49.004;12.120;2023-02-01T00:04:49;4.00;99.90
60727;DHT22;46577;49.004;12.120;2023-02-01T00:07:15;3.80;99.90
60727;DHT22;46577;49.004;12.120;2023-02-01T00:09:40;3.70;99.90
60727;DHT22;46577;49.004;12.120;2023-02-01T00:12:06;3.80;99.90
60727;DHT22;46577;49.004;12.120;2023-02-01T00:14:31;3.70;99.90
60727;DHT22;46577;49.004;12.120;2023-02-01T00:17:04;3.80;99.90
60727;DHT22;46577;49.004;12.120;2023-02-01T00:19:31;3.80;99.90
60727;DHT22;46577;49.004;12.120;2023-02-01T00:21:57;3.70;99.90
60727;DHT22;46577;49.004;12.120;2023-02-01T00:24:23;3.80;99.90
60727;DHT22;46577;49.004;12.120;2023-02-01T00:26:48;3.80;99.90
60727;DHT22;46577;49.004;12.120;2023-02-01T00:29:16;3.70;99.90
60727;DHT22;46577;49.004;12.120;2023-02-01T00:31:43;3.70;99.90
60727;DHT22;46577;49.004;12.120;2023-02-01T00:34:12;3.80;99.90
60727;DHT22;46577;49.004;12.120;2023-02-01T00:36:39;3.70;99.90
60727;DHT22;46577;49.004;12.120;2023-02-01T00:39:05;3.70;99.90
60727;DHT22;46577;49.004;12.120;2023-02-01T00:41:30;3.70;99.90
60727;DHT22;46577;49.004;12.120;2023-02-01T00:43:56;3.80;99.90
60727;DHT22;46577;49.004;12.120;2023-02-01T00:46:21;3.80;99.90
60727;DHT22;46577;49.004;12.120;2023-02-01T00:48:47;3.80;99.90
60727;DHT22;46577;49.004;12.120;2023-02-01T00:51:18;3.80;99.90
60727;DHT22;46577;49.004;12.120;2023-02-01T00:53:44;3.80;99.90
60727;DHT22;46577;49.004;12.120;2023-02-01T00:56:10;3.80;99.90
60727;DHT22;46577;49.004;12.120;2023-02-01T00:58:35;3.80;99.90
60727;DHT22;46577;49.004;12.120;2023-02-01T01:01:16;3.80;99.90
60727;DHT22;46577;49.004;12.120;2023-02-01T01:03:45;3.90;99.90
60727;DHT22;46577;49.004;12.120;2023-02-01T01:06:13;3.90;99.90
60727;DHT22;46577;49.004;12.120;2023-02-01T01:08:39;3.90;99.90
60727;DHT22;46577;49.004;12.120;2023-02-01T01:11:11;3.90;99.90
60727;DHT22;46577;49.004;12.120;2023-02-01T01:13:37;4.00;99.90
60727;DHT22;46577;49.004;12.120;2023-02-01T01:16:05;4.00;99.90
60727;DHT22;46577;49.004;12.120;2023-02-01T01:18:31;3.90;99.90
60727;DHT22;46577;49.004;12.120;2023-02-01T01:20:58;4.00;99.90
60727;DHT22;46577;49.004;12.120;2023-02-01T01:23:24;4.10;99.90
60727;DHT22;46577;49.004;12.120;2023-02-01T01:25:50;4.00;99.90
60727;DHT22;46577;49.004;12.120;2023-02-01T01:28:15;4.00;99.90
60727;DHT22;46577;49.004;12.120;2023-02-01T01:30:41;4.00;99.90
60727;DHT22;46577;49.004;12.120;2023-02-01T01:33:06;4.00;99.90
60727;DHT22;46577;49.004;12.120;2023-02-01T01:35:33;3.90;99.90
60727;DHT22;46577;49.004;12.120;2023-02-01T01:37:59;3.80;99.90
60727;DHT22;46577;49.004;12.120;2023-02-01T01:40:26;3.90;99.90
60727;DHT22;46577;49.004;12.120;2023-02-01T01:42:52;3.90;99.90
60727;DHT22;46577;49.004;12.120;2023-02-01T01:47:59;4.10;99.90
60727;DHT22;46577;49.004;12.120;2023-02-01T01:50:30;4.10;99.90
60727;DHT22;46577;49.004;12.120;2023-02-01T01:53:00;4.10;99.90
60727;DHT22;46577;49.004;12.120;2023-02-01T01:55:31;4.10;99.90
60727;DHT22;46577;49.004;12.120;2023-02-01T01:58:07;4.00;99.90
60727;DHT22;46577;49.004;12.120;2023-02-01T02:00:33;4.00;99.90
60727;DHT22;46577;49.004;12.120;2023-02-01T02:03:07;4.10;99.90
60727;DHT22;46577;49.004;12.120;2023-02-01T02:05:34;4.10;99.90
60727;DHT22;46577;49.004;12.120;2023-02-01T02:08:00;3.90;99.90
60727;DHT22;46577;49.004;12.120;2023-02-01T02:10:29;4.00;99.90
60727;DHT22;46577;49.004;12.120;2023-02-01T02:13:34;4.10;99.90
60727;DHT22;46577;49.004;12.120;2023-02-01T02:27:02;4.20;99.90
60727;DHT22;46577;49.004;12.120;2023-02-01T02:36:08;4.10;99.90
60727;DHT22;46577;49.004;12.120;2023-02-01T02:47:41;4.30;99.90
60727;DHT22;46577;49.004;12.120;2023-02-01T02:53:27;4.20;99.90
60727;DHT22;46577;49.004;12.120;2023-02-01T02:56:15;4.00;99.90
60727;DHT22;46577;49.004;12.120;2023-02-01T02:59:02;4.00;99.90
60727;DHT22;46577;49.004;12.120;2023-02-01T03:01:48;4.10;99.90
60727;DHT22;46577;49.004;12.120;2023-02-01T03:04:32;4.20;99.90
60727;DHT22;46577;49.004;12.120;2023-02-01T03:07:15;4.10;99.90
60727;DHT22;46577;49.004;12.120;2023-02-01T03:09:59;4.10;99.90
60727;DHT22;46577;49.004;12.120;2023-02-01T03:12:32;4.10;99.90
60727;DHT22;46577;49.004;12.120;2023-02-01T03:15:41;4.20;99.90
60727;DHT22;46577;49.004;12.120;2023-02-01T03:18:15;4.20;99.90
60727;DHT22;46577;49.004;12.120;2023-02-01T03:20:46;4.20;99.90
60727;DHT22;46577;49.004;12.120;2023-02-01T03:23:16;4.10;99.90
60727;DHT22;46577;49.004;12.120;2023-02-01T03:25:42;4.10;99.90
60727;DHT22;46577;49.004;12.120;2023-02-01T03:28:09;4.20;99.90
60727;DHT22;46577;49.004;12.120;2023-02-01T03:30:41;4.30;99.90
60727;DHT22;46577;49.004;12.120;2023-02-01T03:33:12;4.20;99.90
60727;DHT22;46577;49.004;12.120;2023-02-01T03:43:33;4.40;99.90
60727;DHT22;46577;49.004;12.120;2023-02-01T03:46:03;4.40;99.90
60727;DHT22;46577;49.004;12.120;2023-02-01T03:48:31;4.40;99.90
60727;DHT22;46577;49.004;12.120;2023-02-01T03:51:00;4.40;99.90
60727;DHT22;46577;49.004;12.120;2023-02-01T03:53:27;4.50;99.90
60727;DHT22;46577;49.004;12.120;2023-02-01T03:55:54;4.40;99.90
60727;DHT22;46577;49.004;12.120;2023-02-01T03:58:22;4.40;99.90
60727;DHT22;46577;49.004;12.120;2023-02-01T04:00:56;4.40;99.90
60727;DHT22;46577;49.004;12.120;2023-02-01T04:03:23;4.40;99.90
60727;DHT22;46577;49.004;12.120;2023-02-01T04:05:51;4.50;99.90
60727;DHT22;46577;49.004;12.120;2023-02-01T04:08:22;4.40;99.90
60727;DHT22;46577;49.004;12.120;2023-02-01T04:10:48;4.40;99.90
60727;DHT22;46577;49.004;12.120;2023-02-01T04:13:13;4.40;99.90
60727;DHT22;46577;49.004;12.120;2023-02-01T04:15:39;4.50;99.90
60727;DHT22;46577;49.004;12.120;2023-02-01T04:18:05;4.60;99.90
60727;DHT22;46577;49.004;12.120;2023-02-01T04:20:31;4.50;99.90
60727;DHT22;46577;49.004;12.120;2023-02-01T04:22:56;4.50;99.90
60727;DHT22;46577;49.004;12.120;2023-02-01T04:25:22;4.60;99.90
60727;DHT22;46577;49.004;12.120;2023-02-01T04:27:48;4.60;99.90
60727;DHT22;46577;49.004;12.120;2023-02-01T04:30:13;4.60;99.90
60727;DHT22;46577;49.004;12.120;2023-02-01T04:32:39;4.70;99.90
60727;DHT22;46577;49.004;12.120;2023-02-01T04:35:06;4.70;99.90
60727;DHT22;46577;49.004;12.120;2023-02-01T04:37:32;4.60;99.90
60727;DHT22;46577;49.004;12.120;2023-02-01T04:39:57;4.70;99.90
60727;DHT22;46577;49.004;12.120;2023-02-01T04:42:23;4.80;99.90
60727;DHT22;46577;49.004;12.120;2023-02-01T04:44:48;4.70;99.90
60727;DHT22;46577;49.004;12.120;2023-02-01T04:47:14;4.70;99.90
60727;DHT22;46577;49.004;12.120;2023-02-01T04:49:41;4.80;99.90
60727;DHT22;46577;49.004;12.120;2023-02-01T04:52:06;4.80;99.90
60727;DHT22;46577;49.004;12.120;2023-02-01T04:54:32;4.80;99.90
60727;DHT22;46577;49.004;12.120;2023-02-01T04:56:58;4.80;99.90
60727;DHT22;46577;49.004;12.120;2023-02-01T04:59:23;4.90;99.90
60727;DHT22;46577;49.004;12.120;2023-02-01T05:01:49;4.80;99.90
60727;DHT22;46577;49.004;12.120;2023-02-01T05:04:15;4.80;99.90
60727;DHT22;46577;49.004;12.120;2023-02-01T05:06:41;4.90;99.90
60727;DHT22;46577;49.004;12.120;2023-02-01T05:09:06;4.80;99.90
60727;DHT22;46577;49.004;12.120;2023-02-01T05:11:32;4.80;99.90
60727;DHT22;46577;49.004;12.120;2023-02-01T05:14:16;4.70;99.90
60727;DHT22;46577;49.004;12.120;2023-02-01T05:16:42;4.70;99.90
60727;DHT22;46577;49.004;12.120;2023-02-01T05:19:07;4.70;99.90
60727;DHT22;46577;49.004;12.120;2023-02-01T05:21:33;4.70;99.90
60727;DHT22;46577;49.004;12.120;2023-02-01T05:23:58;4.70;99.90
60727;DHT22;46577;49.004;12.120;2023-02-01T05:26:41;4.80;99.90
60727;DHT22;46577;49.004;12.120;2023-02-01T05:29:08;4.70;99.90
60727;DHT22;46577;49.004;12.120;2023-02-01T05:31:34;4.70;99.90
60727;DHT22;46577;49.004;12.120;2023-02-01T05:34:00;4.80;99.90
60727;DHT22;46577;49.004;12.120;2023-02-01T05:36:26;4.70;99.90
60727;DHT22;46577;49.004;12.120;2023-02-01T05:38:51;4.80;99.90
60727;DHT22;46577;49.004;12.120;2023-02-01T05:41:17;4.80;99.90
60727;DHT22;46577;49.004;12.120;2023-02-01T05:43:42;4.90;99.90
60727;DHT22;46577;49.004;12.120;2023-02-01T05:46:08;4.90;99.90
60727;DHT22;46577;49.004;12.120;2023-02-01T05:48:38;4.90;99.90
60727;DHT22;46577;49.004;12.120;2023-02-01T05:51:04;5.00;99.90
60727;DHT22;46577;49.004;12.120;2023-02-01T05:53:30;5.00;99.90
60727;DHT22;46577;49.004;12.120;2023-02-01T05:55:55;5.00;99.90
60727;DHT22;46577;49.004;12.120;2023-02-01T05:58:21;5.00;99.90
60727;DHT22;46577;49.004;12.120;2023-02-01T06:00:46;4.80;99.90
60727;DHT22;46577;49.004;12.120;2023-02-01T06:03:12;4.90;99.90
60727;DHT22;46577;49.004;12.120;2023-02-01T06:05:38;4.80;99.90
60727;DHT22;46577;49.004;12.120;2023-02-01T06:08:03;4.80;99.90
60727;DHT22;46577;49.004;12.120;2023-02-01T06:10:29;4.70;99.90
60727;DHT22;46577;49.004;12.120;2023-02-01T06:12:55;4.70;99.90
60727;DHT22;46577;49.004;12.120;2023-02-01T06:15:20;4.70;99.90
60727;DHT22;46577;49.004;12.120;2023-02-01T06:17:46;4.60;99.90
60727;DHT22;46577;49.004;12.120;2023-02-01T06:20:14;4.70;99.90
60727;DHT22;46577;49.004;12.120;2023-02-01T06:22:40;4.70;99.90
60727;DHT22;46577;49.004;12.120;2023-02-01T06:25:07;4.70;99.90
60727;DHT22;46577;49.004;12.120;2023-02-01T06:27:33;4.60;99.90
60727;DHT22;46577;49.004;12.120;2023-02-01T06:29:59;4.60;99.90
60727;DHT22;46577;49.004;12.120;2023-02-01T06:32:25;4.60;99.90
60727;DHT22;46577;49.004;12.120;2023-02-01T06:34:50;4.50;99.90
60727;DHT22;46577;49.004;12.120;2023-02-01T06:37:18;4.50;99.90
60727;DHT22;46577;49.004;12.120;2023-02-01T06:39:44;4.50;99.90
60727;DHT22;46577;49.004;12.120;2023-02-01T06:42:10;4.50;99.90
60727;DHT22;46577;49.004;12.120;2023-02-01T06:44:35;4.50;99.90
60727;DHT22;46577;49.004;12.120;2023-02-01T06:47:02;4.40;99.90
60727;DHT22;46577;49.004;12.120;2023-02-01T06:49:28;4.40;99.90
60727;DHT22;46577;49.004;12.120;2023-02-01T06:51:53;4.30;99.90
60727;DHT22;46577;49.004;12.120;2023-02-01T06:54:19;4.40;99.90
60727;DHT22;46577;49.004;12.120;2023-02-01T06:56:45;4.50;99.90
60727;DHT22;46577;49.004;12.120;2023-02-01T06:59:11;4.30;99.90
60727;DHT22;46577;49.004;12.120;2023-02-01T07:01:36;4.30;99.90
60727;DHT22;46577;49.004;12.120;2023-02-01T07:04:02;4.40;99.90
60727;DHT22;46577;49.004;12.120;2023-02-01T07:06:28;4.40;99.90
60727;DHT22;46577;49.004;12.120;2023-02-01T07:08:53;4.30;99.90
60727;DHT22;46577;49.004;12.120;2023-02-01T07:11:22;4.30;99.90
60727;DHT22;46577;49.004;12.120;2023-02-01T07:13:48;4.40;99.90
60727;DHT22;46577;49.004;12.120;2023-02-01T07:16:16;4.50;99.90
60727;DHT22;46577;49.004;12.120;2023-02-01T07:18:42;4.40;99.90
60727;DHT22;46577;49.004;12.120;2023-02-01T07:21:08;4.30;99.90
60727;DHT22;46577;49.004;12.120;2023-02-01T07:23:35;4.30;99.90
60727;DHT22;46577;49.004;12.120;2023-02-01T07:26:02;4.40;99.90
60727;DHT22;46577;49.004;12.120;2023-02-01T07:28:31;4.50;99.90
60727;DHT22;46577;49.004;12.120;2023-02-01T07:31:08;4.60;99.90
60727;DHT22;46577;49.004;12.120;2023-02-01T07:33:34;4.70;99.90
60727;DHT22;46577;49.004;12.120;2023-02-01T07:36:05;4.70;99.90
60727;DHT22;46577;49.004;12.120;2023-02-01T07:38:31;4.80;99.90
60727;DHT22;46577;49.004;12.120;2023-02-01T07:41:01;4.90;99.90
60727;DHT22;46577;49.004;12.120;2023-02-01T07:43:28;4.90;99.90
60727;DHT22;46577;49.004;12.120;2023-02-01T07:45:54;4.90;99.90
60727;DHT22;46577;49.004;12.120;2023-02-01T07:48:21;4.90;99.90
60727;DHT22;46577;49.004;12.120;2023-02-01T07:50:48;4.80;99.90
60727;DHT22;46577;49.004;12.120;2023-02-01T07:53:13;4.80;99.90
60727;DHT22;46577;49.004;12.120;2023-02-01T07:55:40;4.80;99.90
60727;DHT22;46577;49.004;12.120;2023-02-01T07:58:06;4.60;99.90
60727;DHT22;46577;49.004;12.120;2023-02-01T08:00:31;4.50;99.90
60727;DHT22;46577;49.004;12.120;2023-02-01T08:03:15;4.60;99.90
60727;DHT22;46577;49.004;12.120;2023-02-01T08:05:41;4.50;99.90
60727;DHT22;46577;49.004;12.120;2023-02-01T08:08:06;4.40;99.90
60727;DHT22;46577;49.004;12.120;2023-02-01T08:10:32;4.50;99.90
60727;DHT22;46577;49.004;12.120;2023-02-01T08:12:59;4.50;99.90
60727;DHT22;46577;49.004;12.120;2023-02-01T08:15:26;4.50;99.90
60727;DHT22;46577;49.004;12.120;2023-02-01T08:17:52;4.50;99.90
60727;DHT22;46577;49.004;12.120;2023-02-01T08:20:19;4.50;99.90
60727;DHT22;46577;49.004;12.120;2023-02-01T08:22:47;4.50;99.90
60727;DHT22;46577;49.004;12.120;2023-02-01T08:25:13;4.60;99.90
60727;DHT22;46577;49.004;12.120;2023-02-01T08:27:38;4.60;99.90
60727;DHT22;46577;49.004;12.120;2023-02-01T08:30:04;4.60;99.90
60727;DHT22;46577;49.004;12.120;2023-02-01T08:32:33;4.50;99.90
60727;DHT22;46577;49.004;12.120;2023-02-01T08:34:58;4.50;99.90
60727;DHT22;46577;49.004;12.120;2023-02-01T08:37:24;4.50;99.90
60727;DHT22;46577;49.004;12.120;2023-02-01T08:39:50;4.50;99.90
60727;DHT22;46577;49.004;12.120;2023-02-01T08:42:16;4.50;99.90
60727;DHT22;46577;49.004;12.120;2023-02-01T08:45:01;4.60;99.90
60727;DHT22;46577;49.004;12.120;2023-02-01T08:47:28;4.70;99.90
60727;DHT22;46577;49.004;12.120;2023-02-01T08:49:54;4.90;99.90
60727;DHT22;46577;49.004;12.120;2023-02-01T08:52:20;4.90;99.90
60727;DHT22;46577;49.004;12.120;2023-02-01T08:54:45;5.00;99.90
60727;DHT22;46577;49.004;12.120;2023-02-01T08:57:11;5.00;99.90
60727;DHT22;46577;49.004;12.120;2023-02-01T08:59:37;5.20;99.90
60727;DHT22;46577;49.004;12.120;2023-02-01T09:02:03;5.20;99.90
60727;DHT22;46577;49.004;12.120;2023-02-01T09:04:28;5.30;99.90
60727;DHT22;46577;49.004;12.120;2023-02-01T09:06:54;5.50;99.90
60727;DHT22;46577;49.004;12.120;2023-02-01T09:09:22;5.90;99.90
60727;DHT22;46577;49.004;12.120;2023-02-01T09:11:47;6.20;99.90
60727;DHT22;46577;49.004;12.120;2023-02-01T09:14:14;7.80;99.90
60727;DHT22;46577;49.004;12.120;2023-02-01T09:16:40;9.60;99.90
60727;DHT22;46577;49.004;12.120;2023-02-01T09:19:06;10.80;99.90
60727;DHT22;46577;49.004;12.120;2023-02-01T09:21:31;11.70;99.90
60727;DHT22;46577;49.004;12.120;2023-02-01T09:23:57;12.30;99.20
60727;DHT22;46577;49.004;12.120;2023-02-01T09:26:23;11.90;98.10
60727;DHT22;46577;49.004;12.120;2023-02-01T09:28:50;11.10;99.30
60727;DHT22;46577;49.004;12.120;2023-02-01T09:31:16;9.70;99.90
60727;DHT22;46577;49.004;12.120;2023-02-01T09:33:41;9.00;99.90
60727;DHT22;46577;49.004;12.120;2023-02-01T09:36:07;8.20;99.90
60727;DHT22;46577;49.004;12.120;2023-02-01T09:38:33;7.80;99.90
60727;DHT22;46577;49.004;12.120;2023-02-01T09:40:59;7.50;99.90
60727;DHT22;46577;49.004;12.120;2023-02-01T09:43:58;7.20;99.90
60727;DHT22;46577;49.004;12.120;2023-02-01T09:46:28;7.40;99.90
60727;DHT22;46577;49.004;12.120;2023-02-01T09:48:57;7.40;99.90
60727;DHT22;46577;49.004;12.120;2023-02-01T09:51:45;6.90;99.90
60727;DHT22;46577;49.004;12.120;2023-02-01T09:54:38;6.50;99.90
60727;DHT22;46577;49.004;12.120;2023-02-01T10:00:11;5.70;99.90
60727;DHT22;46577;49.004;12.120;2023-02-01T10:02:41;5.60;99.90
60727;DHT22;46577;49.004;12.120;2023-02-01T10:05:14;5.60;99.90
60727;DHT22;46577;49.004;12.120;2023-02-01T10:10:21;5.40;99.90
60727;DHT22;46577;49.004;12.120;2023-02-01T10:26:25;5.40;99.90
60727;DHT22;46577;49.004;12.120;2023-02-01T10:28:59;5.40;99.90
60727;DHT22;46577;49.004;12.120;2023-02-01T10:31:28;5.50;99.90
60727;DHT22;46577;49.004;12.120;2023-02-01T10:33:59;5.70;99.90
60727;DHT22;46577;49.004;12.120;2023-02-01T10:36:50;6.10;99.90
60727;DHT22;46577;49.004;12.120;2023-02-01T10:39:17;6.10;99.90
60727;DHT22;46577;49.004;12.120;2023-02-01T10:41:44;5.90;99.90
60727;DHT22;46577;49.004;12.120;2023-02-01T10:44:13;5.60;99.90
60727;DHT22;46577;49.004;12.120;2023-02-01T10:46:39;5.80;99.90
60727;DHT22;46577;49.004;12.120;2023-02-01T10:49:08;6.00;99.90
60727;DHT22;46577;49.004;12.120;2023-02-01T10:51:44;6.20;99.90
60727;DHT22;46577;49.004;12.120;2023-02-01T10:54:20;6.30;99.90
60727;DHT22;46577;49.004;12.120;2023-02-01T10:56:47;6.30;99.90
60727;DHT22;46577;49.004;12.120;2023-02-01T10:59:23;6.20;99.90
60727;DHT22;46577;49.004;12.120;2023-02-01T11:01:49;6.10;99.90
60727;DHT22;46577;49.004;12.120;2023-02-01T11:04:20;6.00;99.90
60727;DHT22;46577;49.004;12.120;2023-02-01T11:07:16;6.10;99.90
60727;DHT22;46577;49.004;12.120;2023-02-01T11:09:49;6.00;99.90
60727;DHT22;46577;49.004;12.120;2023-02-01T11:12:38;6.00;99.90
60727;DHT22;46577;49.004;12.120;2023-02-01T11:17:46;5.90;99.90
60727;DHT22;46577;49.004;12.120;2023-02-01T11:20:21;6.00;99.90
60727;DHT22;46577;49.004;12.120;2023-02-01T11:22:58;6.10;99.90
60727;DHT22;46577;49.004;12.120;2023-02-01T11:25:24;6.30;99.90
60727;DHT22;46577;49.004;12.120;2023-02-01T11:27:53;6.60;99.90
60727;DHT22;46577;49.004;12.120;2023-02-01T11:32:52;6.60;99.90
60727;DHT22;46577;49.004;12.120;2023-02-01T11:35:20;6.70;99.90
60727;DHT22;46577;49.004;12.120;2023-02-01T11:37:53;7.00;99.90
60727;DHT22;46577;49.004;12.120;2023-02-01T11:42:54;6.90;99.90
60727;DHT22;46577;49.004;12.120;2023-02-01T11:45:29;6.80;99.90
60727;DHT22;46577;49.004;12.120;2023-02-01T11:47:57;6.70;99.90
60727;DHT22;46577;49.004;12.120;2023-02-01T11:50:42;6.70;99.90
60727;DHT22;46577;49.004;12.120;2023-02-01T11:53:51;6.60;99.90
60727;DHT22;46577;49.004;12.120;2023-02-01T12:00:10;8.40;99.90
60727;DHT22;46577;49.004;12.120;2023-02-01T12:13:41;6.80;99.90
60727;DHT22;46577;49.004;12.120;2023-02-01T12:24:25;7.30;99.90
60727;DHT22;46577;49.004;12.120;2023-02-01T12:27:23;7.50;99.90
60727;DHT22;46577;49.004;12.120;2023-02-01T12:30:31;7.30;99.90
60727;DHT22;46577;49.004;12.120;2023-02-01T12:36:05;7.50;99.90
60727;DHT22;46577;49.004;12.120;2023-02-01T12:39:03;7.50;99.90
60727;DHT22;46577;49.004;12.120;2023-02-01T12:41:51;7.30;99.90
60727;DHT22;46577;49.004;12.120;2023-02-01T12:47:00;6.80;99.90
60727;DHT22;46577;49.004;12.120;2023-02-01T12:52:23;6.70;99.90
60727;DHT22;46577;49.004;12.120;2023-02-01T12:57:35;6.70;99.90
60727;DHT22;46577;49.004;12.120;2023-02-01T13:02:39;6.90;99.90
60727;DHT22;46577;49.004;12.120;2023-02-01T13:05:20;6.50;99.90
60727;DHT22;46577;49.004;12.120;2023-02-01T13:10:43;5.90;99.90
60727;DHT22;46577;49.004;12.120;2023-02-01T13:13:44;5.90;99.90
60727;DHT22;46577;49.004;12.120;2023-02-01T13:16:23;5.90;99.90
60727;DHT22;46577;49.004;12.120;2023-02-01T13:18:59;5.80;99.90
60727;DHT22;46577;49.004;12.120;2023-02-01T13:21:32;5.90;99.90
60727;DHT22;46577;49.004;12.120;2023-02-01T13:23:59;5.90;99.90
60727;DHT22;46577;49.004;12.120;2023-02-01T13:26:25;5.70;99.90
60727;DHT22;46577;49.004;12.120;2023-02-01T13:29:03;5.70;99.90
60727;DHT22;46577;49.004;12.120;2023-02-01T13:42:21;5.90;99.90
60727;DHT22;46577;49.004;12.120;2023-02-01T13:44:56;5.80;99.90
60727;DHT22;46577;49.004;12.120;2023-02-01T13:47:31;5.80;99.90
60727;DHT22;46577;49.004;12.120;2023-02-01T13:50:01;5.80;99.90
60727;DHT22;46577;49.004;12.120;2023-02-01T13:52:52;6.00;99.90
60727;DHT22;46577;49.004;12.120;2023-02-01T13:57:49;5.90;99.90
60727;DHT22;46577;49.004;12.120;2023-02-01T14:00:39;5.90;99.90
60727;DHT22;46577;49.004;12.120;2023-02-01T14:13:26;6.20;99.90
60727;DHT22;46577;49.004;12.120;2023-02-01T14:21:31;6.10;99.90
60727;DHT22;46577;49.004;12.120;2023-02-01T14:26:52;6.10;99.90
60727;DHT22;46577;49.004;12.120;2023-02-01T14:29:21;6.10;99.90
60727;DHT22;46577;49.004;12.120;2023-02-01T14:34:36;5.90;99.90
60727;DHT22;46577;49.004;12.120;2023-02-01T14:37:10;5.90;99.90
60727;DHT22;46577;49.004;12.120;2023-02-01T14:42:42;5.70;99.90
60727;DHT22;46577;49.004;12.120;2023-02-01T14:47:54;5.40;99.90
60727;DHT22;46577;49.004;12.120;2023-02-01T14:55:34;5.50;99.90
60727;DHT22;46577;49.004;12.120;2023-02-01T14:58:02;5.50;99.90
60727;DHT22;46577;49.004;12.120;2023-02-01T15:00:31;5.50;99.90
60727;DHT22;46577;49.004;12.120;2023-02-01T15:03:31;5.50;99.90
60727;DHT22;46577;49.004;12.120;2023-02-01T15:05:59;5.40;99.90
60727;DHT22;46577;49.004;12.120;2023-02-01T15:08:33;5.40;99.90
60727;DHT22;46577;49.004;12.120;2023-02-01T15:11:02;5.50;99.90
60727;DHT22;46577;49.004;12.120;2023-02-01T15:13:29;5.50;99.90
60727;DHT22;46577;49.004;12.120;2023-02-01T15:16:08;5.60;99.90
60727;DHT22;46577;49.004;12.120;2023-02-01T15:18:34;5.60;99.90
60727;DHT22;46577;49.004;12.120;2023-02-01T15:21:02;5.70;99.90
60727;DHT22;46577;49.004;12.120;2023-02-01T15:23:28;5.60;99.90
60727;DHT22;46577;49.004;12.120;2023-02-01T15:25:55;5.50;99.90
60727;DHT22;46577;49.004;12.120;2023-02-01T15:28:21;5.50;99.90
60727;DHT22;46577;49.004;12.120;2023-02-01T15:31:04;5.50;99.90
60727;DHT22;46577;49.004;12.120;2023-02-01T15:33:31;5.40;99.90
60727;DHT22;46577;49.004;12.120;2023-02-01T15:38:42;5.60;99.90
60727;DHT22;46577;49.004;12.120;2023-02-01T15:43:42;5.40;99.90
60727;DHT22;46577;49.004;12.120;2023-02-01T15:46:11;5.50;99.90
60727;DHT22;46577;49.004;12.120;2023-02-01T15:48:49;5.50;99.90
60727;DHT22;46577;49.004;12.120;2023-02-01T15:51:19;5.50;99.90
60727;DHT22;46577;49.004;12.120;2023-02-01T15:53:49;5.50;99.90
60727;DHT22;46577;49.004;12.120;2023-02-01T15:56:20;5.60;99.90
60727;DHT22;46577;49.004;12.120;2023-02-01T15:58:48;5.50;99.90
60727;DHT22;46577;49.004;12.120;2023-02-01T16:01:15;5.50;99.90
60727;DHT22;46577;49.004;12.120;2023-02-01T16:03:45;5.40;99.90
60727;DHT22;46577;49.004;12.120;2023-02-01T16:06:28;5.50;99.90
60727;DHT22;46577;49.004;12.120;2023-02-01T16:09:13;5.50;99.90
60727;DHT22;46577;49.004;12.120;2023-02-01T16:11:51;5.50;99.90
60727;DHT22;46577;49.004;12.120;2023-02-01T16:14:17;5.40;99.90
60727;DHT22;46577;49.004;12.120;2023-02-01T16:16:42;5.40;99.90
60727;DHT22;46577;49.004;12.120;2023-02-01T16:19:08;5.50;99.90
60727;DHT22;46577;49.004;12.120;2023-02-01T16:21:34;5.60;99.90
60727;DHT22;46577;49.004;12.120;2023-02-01T16:23:59;5.60;99.90
60727;DHT22;46577;49.004;12.120;2023-02-01T16:26:29;5.60;99.90
60727;DHT22;46577;49.004;12.120;2023-02-01T16:28:55;5.60;99.90
60727;DHT22;46577;49.004;12.120;2023-02-01T16:31:27;5.50;99.90
60727;DHT22;46577;49.004;12.120;2023-02-01T16:33:53;5.50;99.90
60727;DHT22;46577;49.004;12.120;2023-02-01T16:36:19;5.50;99.90
60727;DHT22;46577;49.004;12.120;2023-02-01T16:38:46;5.60;99.90
60727;DHT22;46577;49.004;12.120;2023-02-01T16:41:15;5.60;99.90
60727;DHT22;46577;49.004;12.120;2023-02-01T16:43:41;5.40;99.90
60727;DHT22;46577;49.004;12.120;2023-02-01T16:46:15;5.30;99.90
60727;DHT22;46577;49.004;12.120;2023-02-01T16:48:44;5.40;99.90
60727;DHT22;46577;49.004;12.120;2023-02-01T16:51:13;5.50;99.90
60727;DHT22;46577;49.004;12.120;2023-02-01T16:53:40;5.40;99.90
60727;DHT22;46577;49.004;12.120;2023-02-01T16:56:17;5.40;99.90
60727;DHT22;46577;49.004;12.120;2023-02-01T16:58:43;5.50;99.90
60727;DHT22;46577;49.004;12.120;2023-02-01T17:01:10;5.50;99.90
60727;DHT22;46577;49.004;12.120;2023-02-01T17:03:36;5.50;99.90
60727;DHT22;46577;49.004;12.120;2023-02-01T17:06:03;5.50;99.90
60727;DHT22;46577;49.004;12.120;2023-02-01T17:08:35;5.50;99.90
60727;DHT22;46577;49.004;12.120;2023-02-01T17:11:02;5.50;99.90
60727;DHT22;46577;49.004;12.120;2023-02-01T17:13:28;5.50;99.90
60727;DHT22;46577;49.004;12.120;2023-02-01T17:15:59;5.50;99.90
60727;DHT22;46577;49.004;12.120;2023-02-01T17:18:27;5.50;99.90
60727;DHT22;46577;49.004;12.120;2023-02-01T17:20:57;5.40;99.90
60727;DHT22;46577;49.004;12.120;2023-02-01T17:23:23;5.50;99.90
60727;DHT22;46577;49.004;12.120;2023-02-01T17:25:48;5.40;99.90
60727;DHT22;46577;49.004;12.120;2023-02-01T17:28:14;5.40;99.90
60727;DHT22;46577;49.004;12.120;2023-02-01T17:30:39;5.40;99.90
60727;DHT22;46577;49.004;12.120;2023-02-01T17:33:27;5.40;99.90
60727;DHT22;46577;49.004;12.120;2023-02-01T17:35:55;5.40;99.90
60727;DHT22;46577;49.004;12.120;2023-02-01T17:38:22;5.40;99.90
60727;DHT22;46577;49.004;12.120;2023-02-01T17:40:47;5.40;99.90
60727;DHT22;46577;49.004;12.120;2023-02-01T17:43:20;5.40;99.90
60727;DHT22;46577;49.004;12.120;2023-02-01T17:45:53;5.30;99.90
60727;DHT22;46577;49.004;12.120;2023-02-01T17:48:20;5.20;99.90
60727;DHT22;46577;49.004;12.120;2023-02-01T17:50:48;5.20;99.90
60727;DHT22;46577;49.004;12.120;2023-02-01T17:53:23;5.30;99.90
60727;DHT22;46577;49.004;12.120;2023-02-01T17:55:50;5.30;99.90
60727;DHT22;46577;49.004;12.120;2023-02-01T17:58:17;5.30;99.90
60727;DHT22;46577;49.004;12.120;2023-02-01T18:00:45;5.30;99.90
60727;DHT22;46577;49.004;12.120;2023-02-01T18:03:28;5.30;99.90
60727;DHT22;46577;49.004;12.120;2023-02-01T18:05:55;5.20;99.90
60727;DHT22;46577;49.004;12.120;2023-02-01T18:08:24;5.30;99.90
60727;DHT22;46577;49.004;12.120;2023-02-01T18:10:52;5.30;99.90
60727;DHT22;46577;49.004;12.120;2023-02-01T18:13:19;5.40;99.90
60727;DHT22;46577;49.004;12.120;2023-02-01T18:15:44;5.40;99.90
60727;DHT22;46577;49.004;12.120;2023-02-01T18:18:10;5.40;99.90
60727;DHT22;46577;49.004;12.120;2023-02-01T18:20:38;5.40;99.90
60727;DHT22;46577;49.004;12.120;2023-02-01T18:23:04;5.40;99.90
60727;DHT22;46577;49.004;12.120;2023-02-01T18:25:30;5.40;99.90